sensor_id;sensor_type;location;lat;lon;timestamp;P1;durP1;ratioP1;P2;durP2;ratioP2
28304;SDS011;15569;42.652;23.040;2023-06-14T00:00:04;9.20;;;4.97;;
28304;SDS011;15569;42.652;23.040;2023-06-14T00:02:30;11.05;;;5.05;;
28304;SDS011;15569;42.652;23.040;2023-06-14T00:04:56;9.25;;;4.85;;
28304;SDS011;15569;42.652;23.040;2023-06-14T00:07:27;8.25;;;5.40;;
28304;SDS011;15569;42.652;23.040;2023-06-14T00:09:59;12.45;;;6.00;;
28304;SDS011;15569;42.652;23.040;2023-06-14T00:12:24;10.85;;;5.80;;
28304;SDS011;15569;42.652;23.040;2023-06-14T00:14:50;13.85;;;5.93;;
28304;SDS011;15569;42.652;23.040;2023-06-14T00:17:15;16.17;;;6.65;;
28304;SDS011;15569;42.652;23.040;2023-06-14T00:19:41;16.45;;;7.72;;
28304;SDS011;15569;42.652;23.040;2023-06-14T00:22:07;17.27;;;7.53;;
28304;SDS011;15569;42.652;23.040;2023-06-14T00:24:32;17.52;;;8.18;;
28304;SDS011;15569;42.652;23.040;2023-06-14T00:26:57;21.83;;;9.32;;
28304;SDS011;15569;42.652;23.040;2023-06-14T00:29:23;24.42;;;8.85;;
28304;SDS011;15569;42.652;23.040;2023-06-14T00:31:48;28.45;;;8.82;;
28304;SDS011;15569;42.652;23.040;2023-06-14T00:34:14;26.42;;;9.93;;
28304;SDS011;15569;42.652;23.040;2023-06-14T00:36:39;20.90;;;8.98;;
28304;SDS011;15569;42.652;23.040;2023-06-14T00:39:04;18.20;;;8.23;;
28304;SDS011;15569;42.652;23.040;2023-06-14T00:41:30;17.65;;;9.23;;
28304;SDS011;15569;42.652;23.040;2023-06-14T00:43:55;22.88;;;9.48;;
28304;SDS011;15569;42.652;23.040;2023-06-14T00:46:21;23.17;;;10.13;;
28304;SDS011;15569;42.652;23.040;2023-06-14T00:48:47;20.55;;;8.93;;
28304;SDS011;15569;42.652;23.040;2023-06-14T00:51:13;22.63;;;9.70;;
28304;SDS011;15569;42.652;23.040;2023-06-14T00:53:39;23.33;;;9.32;;
28304;SDS011;15569;42.652;23.040;2023-06-14T00:56:05;26.08;;;10.32;;
28304;SDS011;15569;42.652;23.040;2023-06-14T00:58:31;30.42;;;10.38;;
28304;SDS011;15569;42.652;23.040;2023-06-14T01:00:57;25.75;;;9.68;;
28304;SDS011;15569;42.652;23.040;2023-06-14T01:03:23;22.10;;;10.10;;
28304;SDS011;15569;42.652;23.040;2023-06-14T01:05:50;27.67;;;10.00;;
28304;SDS011;15569;42.652;23.040;2023-06-14T01:11:38;25.42;;;10.55;;
28304;SDS011;15569;42.652;23.040;2023-06-14T01:14:12;25.45;;;10.38;;
28304;SDS011;15569;42.652;23.040;2023-06-14T01:16:38;23.50;;;9.25;;
28304;SDS011;15569;42.652;23.040;2023-06-14T01:19:04;26.63;;;11.18;;
28304;SDS011;15569;42.652;23.040;2023-06-14T01:21:31;22.48;;;8.82;;
28304;SDS011;15569;42.652;23.040;2023-06-14T01:24:06;20.15;;;9.25;;
28304;SDS011;15569;42.652;23.040;2023-06-14T01:26:32;20.42;;;9.15;;
28304;SDS011;15569;42.652;23.040;2023-06-14T01:28:57;26.73;;;10.13;;
28304;SDS011;15569;42.652;23.040;2023-06-14T01:31:24;20.42;;;8.40;;
28304;SDS011;15569;42.652;23.040;2023-06-14T01:33:50;18.17;;;7.60;;
28304;SDS011;15569;42.652;23.040;2023-06-14T01:36:17;12.02;;;6.82;;
28304;SDS011;15569;42.652;23.040;2023-06-14T01:38:45;17.77;;;7.53;;
28304;SDS011;15569;42.652;23.040;2023-06-14T01:41:11;19.10;;;6.40;;
28304;SDS011;15569;42.652;23.040;2023-06-14T01:43:37;16.13;;;7.32;;
28304;SDS011;15569;42.652;23.040;2023-06-14T01:46:04;13.00;;;6.43;;
28304;SDS011;15569;42.652;23.040;2023-06-14T01:48:31;19.05;;;7.78;;
28304;SDS011;15569;42.652;23.040;2023-06-14T01:50:57;15.50;;;7.40;;
28304;SDS011;15569;42.652;23.040;2023-06-14T01:53:22;10.63;;;6.25;;
28304;SDS011;15569;42.652;23.040;2023-06-14T01:55:48;13.68;;;6.88;;
28304;SDS011;15569;42.652;23.040;2023-06-14T01:58:13;11.20;;;6.07;;
28304;SDS011;15569;42.652;23.040;2023-06-14T02:00:41;13.45;;;5.22;;
28304;SDS011;15569;42.652;23.040;2023-06-14T02:03:08;9.75;;;5.80;;
28304;SDS011;15569;42.652;23.040;2023-06-14T02:05:33;11.30;;;6.07;;
28304;SDS011;15569;42.652;23.040;2023-06-14T02:07:59;12.38;;;5.97;;
28304;SDS011;15569;42.652;23.040;2023-06-14T02:10:25;13.32;;;5.97;;
28304;SDS011;15569;42.652;23.040;2023-06-14T02:12:50;8.50;;;5.30;;
28304;SDS011;15569;42.652;23.040;2023-06-14T02:15:16;9.60;;;5.43;;
28304;SDS011;15569;42.652;23.040;2023-06-14T02:17:45;11.15;;;5.78;;
28304;SDS011;15569;42.652;23.040;2023-06-14T02:20:12;12.40;;;5.60;;
28304;SDS011;15569;42.652;23.040;2023-06-14T02:22:38;13.02;;;5.60;;
28304;SDS011;15569;42.652;23.040;2023-06-14T02:25:03;12.05;;;5.47;;
28304;SDS011;15569;42.652;23.040;2023-06-14T02:27:29;11.40;;;5.43;;
28304;SDS011;15569;42.652;23.040;2023-06-14T02:29:54;16.88;;;6.50;;
28304;SDS011;15569;42.652;23.040;2023-06-14T02:32:20;8.32;;;4.88;;
28304;SDS011;15569;42.652;23.040;2023-06-14T02:34:45;10.18;;;4.72;;
28304;SDS011;15569;42.652;23.040;2023-06-14T02:37:14;9.37;;;5.53;;
28304;SDS011;15569;42.652;23.040;2023-06-14T02:39:40;9.95;;;5.30;;
28304;SDS011;15569;42.652;23.040;2023-06-14T02:42:06;11.55;;;5.75;;
28304;SDS011;15569;42.652;23.040;2023-06-14T02:44:32;9.55;;;4.25;;
28304;SDS011;15569;42.652;23.040;2023-06-14T02:46:57;5.47;;;3.13;;
28304;SDS011;15569;42.652;23.040;2023-06-14T02:49:24;4.88;;;3.45;;
28304;SDS011;15569;42.652;23.040;2023-06-14T02:51:50;5.95;;;3.50;;
28304;SDS011;15569;42.652;23.040;2023-06-14T02:54:15;5.75;;;3.80;;
28304;SDS011;15569;42.652;23.040;2023-06-14T02:56:40;4.82;;;3.28;;
28304;SDS011;15569;42.652;23.040;2023-06-14T02:59:06;6.75;;;3.70;;
28304;SDS011;15569;42.652;23.040;2023-06-14T03:01:32;10.63;;;4.50;;
28304;SDS011;15569;42.652;23.040;2023-06-14T03:04:06;6.53;;;3.92;;
28304;SDS011;15569;42.652;23.040;2023-06-14T03:06:32;6.80;;;3.45;;
28304;SDS011;15569;42.652;23.040;2023-06-14T03:08:58;4.95;;;3.55;;
28304;SDS011;15569;42.652;23.040;2023-06-14T03:11:26;5.22;;;3.53;;
28304;SDS011;15569;42.652;23.040;2023-06-14T03:13:52;10.95;;;4.95;;
28304;SDS011;15569;42.652;23.040;2023-06-14T03:16:18;9.25;;;4.07;;
28304;SDS011;15569;42.652;23.040;2023-06-14T03:18:49;10.57;;;4.82;;
28304;SDS011;15569;42.652;23.040;2023-06-14T03:21:15;7.63;;;4.43;;
28304;SDS011;15569;42.652;23.040;2023-06-14T03:23:41;7.68;;;4.45;;
28304;SDS011;15569;42.652;23.040;2023-06-14T03:26:07;7.60;;;4.40;;
28304;SDS011;15569;42.652;23.040;2023-06-14T03:28:33;16.58;;;6.28;;
28304;SDS011;15569;42.652;23.040;2023-06-14T03:30:58;11.15;;;4.57;;
28304;SDS011;15569;42.652;23.040;2023-06-14T03:33:24;7.95;;;4.47;;
28304;SDS011;15569;42.652;23.040;2023-06-14T03:35:50;9.52;;;4.90;;
28304;SDS011;15569;42.652;23.040;2023-06-14T03:38:17;13.40;;;5.30;;
28304;SDS011;15569;42.652;23.040;2023-06-14T03:40:42;10.40;;;5.03;;
28304;SDS011;15569;42.652;23.040;2023-06-14T03:43:07;8.65;;;5.15;;
28304;SDS011;15569;42.652;23.040;2023-06-14T03:45:33;10.35;;;5.68;;
28304;SDS011;15569;42.652;23.040;2023-06-14T03:47:58;11.73;;;5.80;;
28304;SDS011;15569;42.652;23.040;2023-06-14T03:50:25;9.80;;;5.50;;
28304;SDS011;15569;42.652;23.040;2023-06-14T03:52:52;15.00;;;6.00;;
28304;SDS011;15569;42.652;23.040;2023-06-14T03:55:17;13.80;;;6.47;;
28304;SDS011;15569;42.652;23.040;2023-06-14T03:57:43;8.80;;;5.82;;
28304;SDS011;15569;42.652;23.040;2023-06-14T04:00:08;13.15;;;5.60;;
28304;SDS011;15569;42.652;23.040;2023-06-14T04:02:34;9.10;;;4.82;;
28304;SDS011;15569;42.652;23.040;2023-06-14T04:05:01;9.63;;;4.15;;
28304;SDS011;15569;42.652;23.040;2023-06-14T04:07:27;6.93;;;4.38;;
28304;SDS011;15569;42.652;23.040;2023-06-14T04:09:53;7.30;;;4.32;;
28304;SDS011;15569;42.652;23.040;2023-06-14T04:12:19;7.82;;;4.13;;
28304;SDS011;15569;42.652;23.040;2023-06-14T04:14:45;6.43;;;4.25;;
28304;SDS011;15569;42.652;23.040;2023-06-14T04:17:10;6.70;;;4.20;;
28304;SDS011;15569;42.652;23.040;2023-06-14T04:19:36;8.93;;;4.82;;
28304;SDS011;15569;42.652;23.040;2023-06-14T04:22:01;13.57;;;5.00;;
28304;SDS011;15569;42.652;23.040;2023-06-14T04:24:27;14.82;;;7.35;;
28304;SDS011;15569;42.652;23.040;2023-06-14T04:26:57;10.88;;;5.78;;
28304;SDS011;15569;42.652;23.040;2023-06-14T04:29:23;12.35;;;6.80;;
28304;SDS011;15569;42.652;23.040;2023-06-14T04:31:51;12.27;;;6.55;;
28304;SDS011;15569;42.652;23.040;2023-06-14T04:34:17;13.15;;;6.28;;
28304;SDS011;15569;42.652;23.040;2023-06-14T04:36:42;21.15;;;7.88;;
28304;SDS011;15569;42.652;23.040;2023-06-14T04:39:14;21.92;;;8.98;;
28304;SDS011;15569;42.652;23.040;2023-06-14T04:41:42;25.17;;;9.88;;
28304;SDS011;15569;42.652;23.040;2023-06-14T04:44:08;23.27;;;10.68;;
28304;SDS011;15569;42.652;23.040;2023-06-14T04:46:35;40.70;;;18.35;;
28304;SDS011;15569;42.652;23.040;2023-06-14T04:49:09;37.95;;;16.60;;
28304;SDS011;15569;42.652;23.040;2023-06-14T04:51:35;34.78;;;15.70;;
28304;SDS011;15569;42.652;23.040;2023-06-14T04:54:02;32.10;;;15.23;;
28304;SDS011;15569;42.652;23.040;2023-06-14T04:56:28;35.60;;;14.68;;
28304;SDS011;15569;42.652;23.040;2023-06-14T04:58:54;22.55;;;10.85;;
28304;SDS011;15569;42.652;23.040;2023-06-14T05:01:21;14.48;;;7.25;;
28304;SDS011;15569;42.652;23.040;2023-06-14T05:03:48;14.82;;;7.55;;
28304;SDS011;15569;42.652;23.040;2023-06-14T05:06:14;19.83;;;8.10;;
28304;SDS011;15569;42.652;23.040;2023-06-14T05:08:41;20.77;;;10.02;;
28304;SDS011;15569;42.652;23.040;2023-06-14T05:11:06;23.48;;;10.07;;
28304;SDS011;15569;42.652;23.040;2023-06-14T05:13:32;19.08;;;9.90;;
28304;SDS011;15569;42.652;23.040;2023-06-14T05:15:58;23.13;;;10.75;;
28304;SDS011;15569;42.652;23.040;2023-06-14T05:18:24;19.02;;;8.35;;
28304;SDS011;15569;42.652;23.040;2023-06-14T05:20:50;19.30;;;8.07;;
28304;SDS011;15569;42.652;23.040;2023-06-14T05:23:16;13.48;;;7.70;;
28304;SDS011;15569;42.652;23.040;2023-06-14T05:25:42;24.08;;;9.85;;
28304;SDS011;15569;42.652;23.040;2023-06-14T05:28:08;24.95;;;10.13;;
28304;SDS011;15569;42.652;23.040;2023-06-14T05:30:34;18.83;;;9.77;;
28304;SDS011;15569;42.652;23.040;2023-06-14T05:33:00;24.73;;;10.05;;
28304;SDS011;15569;42.652;23.040;2023-06-14T05:35:26;25.23;;;9.77;;
28304;SDS011;15569;42.652;23.040;2023-06-14T05:37:52;25.35;;;9.82;;
28304;SDS011;15569;42.652;23.040;2023-06-14T05:40:18;24.52;;;9.60;;
28304;SDS011;15569;42.652;23.040;2023-06-14T05:42:44;28.73;;;10.18;;
28304;SDS011;15569;42.652;23.040;2023-06-14T05:45:10;26.80;;;9.68;;
28304;SDS011;15569;42.652;23.040;2023-06-14T05:47:36;21.65;;;9.20;;
28304;SDS011;15569;42.652;23.040;2023-06-14T05:50:01;21.33;;;9.38;;
28304;SDS011;15569;42.652;23.040;2023-06-14T05:52:27;20.55;;;9.52;;
28304;SDS011;15569;42.652;23.040;2023-06-14T05:54:53;17.52;;;9.23;;
28304;SDS011;15569;42.652;23.040;2023-06-14T05:57:18;13.07;;;8.32;;
28304;SDS011;15569;42.652;23.040;2023-06-14T05:59:44;15.15;;;7.85;;
28304;SDS011;15569;42.652;23.040;2023-06-14T06:02:10;14.73;;;7.13;;
28304;SDS011;15569;42.652;23.040;2023-06-14T06:04:35;9.55;;;6.28;;
28304;SDS011;15569;42.652;23.040;2023-06-14T06:07:01;14.73;;;6.35;;
28304;SDS011;15569;42.652;23.040;2023-06-14T06:09:26;8.30;;;5.50;;
28304;SDS011;15569;42.652;23.040;2023-06-14T06:11:52;8.60;;;5.95;;
28304;SDS011;15569;42.652;23.040;2023-06-14T06:14:17;10.75;;;5.95;;
28304;SDS011;15569;42.652;23.040;2023-06-14T06:16:42;8.77;;;5.05;;
28304;SDS011;15569;42.652;23.040;2023-06-14T06:19:08;7.40;;;5.20;;
28304;SDS011;15569;42.652;23.040;2023-06-14T06:21:33;13.23;;;6.55;;
28304;SDS011;15569;42.652;23.040;2023-06-14T06:23:59;9.48;;;5.28;;
28304;SDS011;15569;42.652;23.040;2023-06-14T06:26:24;7.68;;;5.03;;
28304;SDS011;15569;42.652;23.040;2023-06-14T06:28:51;10.35;;;6.47;;
28304;SDS011;15569;42.652;23.040;2023-06-14T06:31:17;8.27;;;5.78;;
28304;SDS011;15569;42.652;23.040;2023-06-14T06:33:42;11.05;;;6.45;;
28304;SDS011;15569;42.652;23.040;2023-06-14T06:36:08;10.07;;;6.60;;
28304;SDS011;15569;42.652;23.040;2023-06-14T06:38:33;11.02;;;6.18;;
28304;SDS011;15569;42.652;23.040;2023-06-14T06:40:58;11.27;;;6.88;;
28304;SDS011;15569;42.652;23.040;2023-06-14T06:43:24;11.45;;;6.97;;
28304;SDS011;15569;42.652;23.040;2023-06-14T06:45:50;11.80;;;6.85;;
28304;SDS011;15569;42.652;23.040;2023-06-14T06:48:15;10.07;;;6.90;;
28304;SDS011;15569;42.652;23.040;2023-06-14T06:50:41;10.57;;;6.88;;
28304;SDS011;15569;42.652;23.040;2023-06-14T06:53:06;11.48;;;6.68;;
28304;SDS011;15569;42.652;23.040;2023-06-14T06:55:31;12.30;;;6.22;;
28304;SDS011;15569;42.652;23.040;2023-06-14T06:57:57;11.40;;;6.38;;
28304;SDS011;15569;42.652;23.040;2023-06-14T07:00:22;15.80;;;7.00;;
28304;SDS011;15569;42.652;23.040;2023-06-14T07:02:48;9.45;;;6.03;;
28304;SDS011;15569;42.652;23.040;2023-06-14T07:05:14;13.38;;;6.97;;
28304;SDS011;15569;42.652;23.040;2023-06-14T07:07:39;13.88;;;6.68;;
28304;SDS011;15569;42.652;23.040;2023-06-14T07:10:05;27.88;;;7.43;;
28304;SDS011;15569;42.652;23.040;2023-06-14T07:12:31;13.88;;;7.32;;
28304;SDS011;15569;42.652;23.040;2023-06-14T07:14:58;10.52;;;7.18;;
28304;SDS011;15569;42.652;23.040;2023-06-14T07:17:24;15.95;;;7.78;;
28304;SDS011;15569;42.652;23.040;2023-06-14T07:19:50;13.48;;;7.65;;
28304;SDS011;15569;42.652;23.040;2023-06-14T07:22:16;25.10;;;10.75;;
28304;SDS011;15569;42.652;23.040;2023-06-14T07:24:42;14.05;;;8.38;;
28304;SDS011;15569;42.652;23.040;2023-06-14T07:27:08;14.63;;;8.38;;
28304;SDS011;15569;42.652;23.040;2023-06-14T07:29:33;11.65;;;6.80;;
28304;SDS011;15569;42.652;23.040;2023-06-14T07:31:58;15.80;;;7.38;;
28304;SDS011;15569;42.652;23.040;2023-06-14T07:34:24;20.95;;;8.55;;
28304;SDS011;15569;42.652;23.040;2023-06-14T07:36:49;22.77;;;8.98;;
28304;SDS011;15569;42.652;23.040;2023-06-14T07:39:15;19.95;;;8.63;;
28304;SDS011;15569;42.652;23.040;2023-06-14T07:41:40;23.15;;;8.65;;
28304;SDS011;15569;42.652;23.040;2023-06-14T07:44:06;17.50;;;8.70;;
28304;SDS011;15569;42.652;23.040;2023-06-14T07:46:31;23.38;;;9.98;;
28304;SDS011;15569;42.652;23.040;2023-06-14T07:48:56;20.85;;;10.38;;
28304;SDS011;15569;42.652;23.040;2023-06-14T07:51:22;24.85;;;11.82;;
28304;SDS011;15569;42.652;23.040;2023-06-14T07:53:48;13.73;;;7.50;;
28304;SDS011;15569;42.652;23.040;2023-06-14T07:56:14;18.63;;;8.80;;
28304;SDS011;15569;42.652;23.040;2023-06-14T07:58:39;29.95;;;10.52;;
28304;SDS011;15569;42.652;23.040;2023-06-14T08:01:05;15.40;;;8.23;;
28304;SDS011;15569;42.652;23.040;2023-06-14T08:03:31;19.55;;;7.78;;
28304;SDS011;15569;42.652;23.040;2023-06-14T08:05:57;22.13;;;7.68;;
28304;SDS011;15569;42.652;23.040;2023-06-14T08:08:23;12.18;;;6.93;;
28304;SDS011;15569;42.652;23.040;2023-06-14T08:10:48;12.50;;;7.07;;
28304;SDS011;15569;42.652;23.040;2023-06-14T08:13:14;16.88;;;7.13;;
28304;SDS011;15569;42.652;23.040;2023-06-14T08:15:39;9.63;;;6.78;;
28304;SDS011;15569;42.652;23.040;2023-06-14T08:18:04;9.65;;;6.30;;
28304;SDS011;15569;42.652;23.040;2023-06-14T08:20:30;8.90;;;6.57;;
28304;SDS011;15569;42.652;23.040;2023-06-14T08:22:56;15.05;;;7.55;;
28304;SDS011;15569;42.652;23.040;2023-06-14T08:25:22;9.93;;;6.60;;
28304;SDS011;15569;42.652;23.040;2023-06-14T08:27:48;8.07;;;6.03;;
28304;SDS011;15569;42.652;23.040;2023-06-14T08:30:13;26.75;;;10.48;;
28304;SDS011;15569;42.652;23.040;2023-06-14T08:32:39;12.13;;;6.55;;
28304;SDS011;15569;42.652;23.040;2023-06-14T08:35:04;20.70;;;7.78;;
28304;SDS011;15569;42.652;23.040;2023-06-14T08:37:30;28.35;;;15.27;;
28304;SDS011;15569;42.652;23.040;2023-06-14T08:39:56;15.77;;;8.95;;
28304;SDS011;15569;42.652;23.040;2023-06-14T08:42:21;12.32;;;7.05;;
28304;SDS011;15569;42.652;23.040;2023-06-14T08:44:49;12.60;;;6.72;;
28304;SDS011;15569;42.652;23.040;2023-06-14T08:47:14;12.43;;;6.90;;
28304;SDS011;15569;42.652;23.040;2023-06-14T08:49:42;18.65;;;10.77;;
28304;SDS011;15569;42.652;23.040;2023-06-14T08:52:12;12.80;;;7.57;;
28304;SDS011;15569;42.652;23.040;2023-06-14T08:54:40;14.38;;;7.82;;
28304;SDS011;15569;42.652;23.040;2023-06-14T08:57:10;11.70;;;6.68;;
28304;SDS011;15569;42.652;23.040;2023-06-14T08:59:37;34.50;;;15.67;;
28304;SDS011;15569;42.652;23.040;2023-06-14T09:02:17;14.70;;;7.68;;
28304;SDS011;15569;42.652;23.040;2023-06-14T09:04:44;18.00;;;9.35;;
28304;SDS011;15569;42.652;23.040;2023-06-14T09:07:10;19.77;;;10.45;;
28304;SDS011;15569;42.652;23.040;2023-06-14T09:09:41;13.98;;;7.90;;
28304;SDS011;15569;42.652;23.040;2023-06-14T09:12:10;13.35;;;9.07;;
28304;SDS011;15569;42.652;23.040;2023-06-14T09:14:37;9.85;;;6.55;;
28304;SDS011;15569;42.652;23.040;2023-06-14T09:17:05;9.80;;;6.75;;
28304;SDS011;15569;42.652;23.040;2023-06-14T09:19:30;7.38;;;5.55;;
28304;SDS011;15569;42.652;23.040;2023-06-14T09:21:56;35.55;;;18.17;;
28304;SDS011;15569;42.652;23.040;2023-06-14T09:24:23;10.32;;;6.50;;
28304;SDS011;15569;42.652;23.040;2023-06-14T09:26:50;8.93;;;6.18;;
28304;SDS011;15569;42.652;23.040;2023-06-14T09:29:16;11.07;;;6.80;;
28304;SDS011;15569;42.652;23.040;2023-06-14T09:31:43;11.45;;;6.93;;
28304;SDS011;15569;42.652;23.040;2023-06-14T09:34:10;15.07;;;8.70;;
28304;SDS011;15569;42.652;23.040;2023-06-14T09:36:36;10.60;;;5.72;;
28304;SDS011;15569;42.652;23.040;2023-06-14T09:39:05;10.05;;;6.28;;
28304;SDS011;15569;42.652;23.040;2023-06-14T09:44:00;9.45;;;6.80;;
28304;SDS011;15569;42.652;23.040;2023-06-14T09:46:28;16.60;;;9.95;;
28304;SDS011;15569;42.652;23.040;2023-06-14T09:48:59;11.63;;;7.63;;
28304;SDS011;15569;42.652;23.040;2023-06-14T09:51:26;9.50;;;6.83;;
28304;SDS011;15569;42.652;23.040;2023-06-14T09:53:52;13.95;;;8.45;;
28304;SDS011;15569;42.652;23.040;2023-06-14T09:56:25;15.48;;;8.15;;
28304;SDS011;15569;42.652;23.040;2023-06-14T09:58:55;16.10;;;8.88;;
28304;SDS011;15569;42.652;23.040;2023-06-14T10:01:26;9.20;;;6.40;;
28304;SDS011;15569;42.652;23.040;2023-06-14T10:03:55;12.82;;;6.32;;
28304;SDS011;15569;42.652;23.040;2023-06-14T10:06:25;13.38;;;8.70;;
28304;SDS011;15569;42.652;23.040;2023-06-14T10:08:56;30.40;;;15.25;;
28304;SDS011;15569;42.652;23.040;2023-06-14T10:11:28;12.43;;;7.05;;
28304;SDS011;15569;42.652;23.040;2023-06-14T10:13:57;12.38;;;7.57;;
28304;SDS011;15569;42.652;23.040;2023-06-14T10:16:28;13.48;;;6.97;;
28304;SDS011;15569;42.652;23.040;2023-06-14T10:24:18;14.02;;;8.80;;
28304;SDS011;15569;42.652;23.040;2023-06-14T10:26:54;10.88;;;7.22;;
28304;SDS011;15569;42.652;23.040;2023-06-14T10:29:22;8.52;;;6.40;;
28304;SDS011;15569;42.652;23.040;2023-06-14T10:31:48;11.75;;;7.05;;
28304;SDS011;15569;42.652;23.040;2023-06-14T10:34:22;18.73;;;10.40;;
28304;SDS011;15569;42.652;23.040;2023-06-14T10:37:11;12.82;;;8.77;;
28304;SDS011;15569;42.652;23.040;2023-06-14T10:39:41;10.68;;;7.72;;
28304;SDS011;15569;42.652;23.040;2023-06-14T10:42:11;18.65;;;10.60;;
28304;SDS011;15569;42.652;23.040;2023-06-14T10:44:38;22.27;;;13.50;;
28304;SDS011;15569;42.652;23.040;2023-06-14T10:47:06;19.42;;;10.45;;
28304;SDS011;15569;42.652;23.040;2023-06-14T10:49:42;13.55;;;9.65;;
28304;SDS011;15569;42.652;23.040;2023-06-14T10:52:10;16.15;;;10.73;;
28304;SDS011;15569;42.652;23.040;2023-06-14T10:55:03;19.23;;;10.82;;
28304;SDS011;15569;42.652;23.040;2023-06-14T10:57:40;20.92;;;10.70;;
28304;SDS011;15569;42.652;23.040;2023-06-14T11:00:07;12.60;;;8.13;;
28304;SDS011;15569;42.652;23.040;2023-06-14T11:05:55;14.50;;;8.65;;
28304;SDS011;15569;42.652;23.040;2023-06-14T11:10:49;13.45;;;9.40;;
28304;SDS011;15569;42.652;23.040;2023-06-14T11:13:18;25.60;;;15.23;;
28304;SDS011;15569;42.652;23.040;2023-06-14T11:15:44;14.93;;;8.77;;
28304;SDS011;15569;42.652;23.040;2023-06-14T11:18:12;24.10;;;12.93;;
28304;SDS011;15569;42.652;23.040;2023-06-14T11:20:39;18.80;;;9.50;;
28304;SDS011;15569;42.652;23.040;2023-06-14T11:23:05;20.20;;;12.60;;
28304;SDS011;15569;42.652;23.040;2023-06-14T11:25:30;14.18;;;9.52;;
28304;SDS011;15569;42.652;23.040;2023-06-14T11:27:56;15.80;;;8.63;;
28304;SDS011;15569;42.652;23.040;2023-06-14T11:30:22;13.43;;;7.90;;
28304;SDS011;15569;42.652;23.040;2023-06-14T11:32:49;20.38;;;12.50;;
28304;SDS011;15569;42.652;23.040;2023-06-14T11:35:16;21.17;;;12.13;;
28304;SDS011;15569;42.652;23.040;2023-06-14T11:37:43;24.50;;;14.90;;
28304;SDS011;15569;42.652;23.040;2023-06-14T11:40:10;25.42;;;15.02;;
28304;SDS011;15569;42.652;23.040;2023-06-14T11:42:37;33.55;;;17.05;;
28304;SDS011;15569;42.652;23.040;2023-06-14T11:45:04;15.23;;;9.63;;
28304;SDS011;15569;42.652;23.040;2023-06-14T11:47:32;13.10;;;8.75;;
28304;SDS011;15569;42.652;23.040;2023-06-14T11:49:59;12.13;;;7.63;;
28304;SDS011;15569;42.652;23.040;2023-06-14T11:52:25;15.65;;;11.10;;
28304;SDS011;15569;42.652;23.040;2023-06-14T11:54:51;11.32;;;7.57;;
28304;SDS011;15569;42.652;23.040;2023-06-14T11:57:17;15.40;;;8.35;;
28304;SDS011;15569;42.652;23.040;2023-06-14T11:59:43;11.98;;;8.05;;
28304;SDS011;15569;42.652;23.040;2023-06-14T12:02:09;13.95;;;8.82;;
28304;SDS011;15569;42.652;23.040;2023-06-14T12:04:35;13.48;;;9.02;;
28304;SDS011;15569;42.652;23.040;2023-06-14T12:07:13;19.27;;;9.85;;
28304;SDS011;15569;42.652;23.040;2023-06-14T12:12:23;23.70;;;11.15;;
28304;SDS011;15569;42.652;23.040;2023-06-14T12:14:53;14.45;;;9.98;;
28304;SDS011;15569;42.652;23.040;2023-06-14T12:17:21;17.48;;;9.73;;
28304;SDS011;15569;42.652;23.040;2023-06-14T12:19:48;14.85;;;10.43;;
28304;SDS011;15569;42.652;23.040;2023-06-14T12:22:15;13.00;;;8.18;;
28304;SDS011;15569;42.652;23.040;2023-06-14T12:24:44;13.85;;;10.23;;
28304;SDS011;15569;42.652;23.040;2023-06-14T12:27:10;15.65;;;9.50;;
28304;SDS011;15569;42.652;23.040;2023-06-14T12:29:43;16.33;;;9.20;;
28304;SDS011;15569;42.652;23.040;2023-06-14T12:32:09;17.90;;;9.65;;
28304;SDS011;15569;42.652;23.040;2023-06-14T12:34:35;17.83;;;11.93;;
28304;SDS011;15569;42.652;23.040;2023-06-14T12:37:00;28.23;;;15.27;;
28304;SDS011;15569;42.652;23.040;2023-06-14T12:39:29;16.45;;;9.20;;
28304;SDS011;15569;42.652;23.040;2023-06-14T12:41:56;26.23;;;15.50;;
28304;SDS011;15569;42.652;23.040;2023-06-14T12:44:22;16.83;;;10.25;;
28304;SDS011;15569;42.652;23.040;2023-06-14T12:46:48;30.30;;;16.35;;
28304;SDS011;15569;42.652;23.040;2023-06-14T12:49:13;21.75;;;12.75;;
28304;SDS011;15569;42.652;23.040;2023-06-14T12:51:39;26.30;;;13.88;;
28304;SDS011;15569;42.652;23.040;2023-06-14T12:54:05;26.55;;;11.57;;
28304;SDS011;15569;42.652;23.040;2023-06-14T12:56:30;24.70;;;10.88;;
28304;SDS011;15569;42.652;23.040;2023-06-14T12:58:56;23.92;;;12.23;;
28304;SDS011;15569;42.652;23.040;2023-06-14T13:01:21;20.05;;;11.50;;
28304;SDS011;15569;42.652;23.040;2023-06-14T13:03:47;19.60;;;10.63;;
28304;SDS011;15569;42.652;23.040;2023-06-14T13:06:13;20.33;;;11.52;;
28304;SDS011;15569;42.652;23.040;2023-06-14T13:08:38;19.73;;;11.23;;
28304;SDS011;15569;42.652;23.040;2023-06-14T13:11:04;20.05;;;11.20;;
28304;SDS011;15569;42.652;23.040;2023-06-14T13:13:29;23.52;;;12.10;;
28304;SDS011;15569;42.652;23.040;2023-06-14T13:15:55;18.55;;;12.02;;
28304;SDS011;15569;42.652;23.040;2023-06-14T13:18:20;14.77;;;8.57;;
28304;SDS011;15569;42.652;23.040;2023-06-14T13:20:46;14.02;;;8.55;;
28304;SDS011;15569;42.652;23.040;2023-06-14T13:23:12;11.25;;;7.30;;
28304;SDS011;15569;42.652;23.040;2023-06-14T13:25:38;13.95;;;8.85;;
28304;SDS011;15569;42.652;23.040;2023-06-14T13:28:05;9.27;;;7.13;;
28304;SDS011;15569;42.652;23.040;2023-06-14T13:30:31;15.23;;;9.48;;
28304;SDS011;15569;42.652;23.040;2023-06-14T13:32:57;16.90;;;9.23;;
28304;SDS011;15569;42.652;23.040;2023-06-14T13:35:23;18.13;;;9.25;;
28304;SDS011;15569;42.652;23.040;2023-06-14T13:37:49;13.65;;;8.27;;
28304;SDS011;15569;42.652;23.040;2023-06-14T13:40:15;12.30;;;8.73;;
28304;SDS011;15569;42.652;23.040;2023-06-14T13:42:40;12.23;;;7.60;;
28304;SDS011;15569;42.652;23.040;2023-06-14T13:45:06;12.27;;;6.75;;
28304;SDS011;15569;42.652;23.040;2023-06-14T13:47:33;18.88;;;7.70;;
28304;SDS011;15569;42.652;23.040;2023-06-14T13:49:58;10.50;;;7.22;;
28304;SDS011;15569;42.652;23.040;2023-06-14T13:52:24;12.15;;;8.00;;
28304;SDS011;15569;42.652;23.040;2023-06-14T13:54:50;11.20;;;8.20;;
28304;SDS011;15569;42.652;23.040;2023-06-14T13:57:16;13.68;;;8.40;;
28304;SDS011;15569;42.652;23.040;2023-06-14T13:59:42;14.20;;;8.40;;
28304;SDS011;15569;42.652;23.040;2023-06-14T14:02:09;11.90;;;7.80;;
28304;SDS011;15569;42.652;23.040;2023-06-14T14:04:36;13.27;;;6.90;;
28304;SDS011;15569;42.652;23.040;2023-06-14T14:07:02;8.43;;;6.13;;
28304;SDS011;15569;42.652;23.040;2023-06-14T14:09:28;10.27;;;6.80;;
28304;SDS011;15569;42.652;23.040;2023-06-14T14:11:53;9.35;;;6.20;;
28304;SDS011;15569;42.652;23.040;2023-06-14T14:14:19;10.90;;;5.68;;
28304;SDS011;15569;42.652;23.040;2023-06-14T14:16:45;6.28;;;5.18;;
28304;SDS011;15569;42.652;23.040;2023-06-14T14:19:10;7.80;;;5.43;;
28304;SDS011;15569;42.652;23.040;2023-06-14T14:21:36;10.13;;;5.53;;
28304;SDS011;15569;42.652;23.040;2023-06-14T14:24:01;7.88;;;5.88;;
28304;SDS011;15569;42.652;23.040;2023-06-14T14:26:27;5.55;;;4.65;;
28304;SDS011;15569;42.652;23.040;2023-06-14T14:28:52;14.52;;;5.65;;
28304;SDS011;15569;42.652;23.040;2023-06-14T14:31:18;12.68;;;5.35;;
28304;SDS011;15569;42.652;23.040;2023-06-14T14:33:43;6.50;;;4.93;;
28304;SDS011;15569;42.652;23.040;2023-06-14T14:36:09;5.88;;;4.80;;